4Z9 weather

Jakolof Bay Airport
Jakolof Bay, Alaska, United States

Public forecast

Using degrees Fahrenheit for public forecast. Weather courtesy of forecast.io.

METAR (pilot weather report)

Closest report is Seldovia Airport, 5.6 nm (10.3 km) W. Retrieved 2019/07/19 10:53 UTC (1 hour ago):

PASO 191053Z AUTO 00000KT 7SM CLR 12/11 A2989 RMK AO2 SLP120 T01220106 TSNO

TAF (pilot weather forecast)

Closest forecast is Homer Airport, 11.7 nm (21.7 km) N. Retrieved 2019/07/19 12:27 UTC (0 seconds ago):

TAF PAHO 191125Z 1912/2012 VRB04KT P6SM BKN200 FM192100 25011KT P6SM FEW050 SCT200 FM200800 VRB04KT P6SM SCT030 BKN050